createdAt,value
2018-11-02T00:00:04.117Z,4.70
2018-11-02T00:02:32.249Z,4.70
2018-11-02T00:05:00.402Z,4.70
2018-11-02T00:07:28.529Z,4.60
2018-11-02T00:09:56.806Z,4.60
2018-11-02T00:12:24.997Z,4.50
2018-11-02T00:14:53.060Z,4.50
2018-11-02T00:17:21.234Z,4.40
2018-11-02T00:19:49.389Z,4.40
2018-11-02T00:22:17.511Z,4.40
2018-11-02T00:24:45.627Z,4.40
2018-11-02T00:27:13.766Z,4.40
2018-11-02T00:29:41.894Z,4.40
2018-11-02T00:32:10.046Z,4.40
2018-11-02T00:34:38.179Z,4.50
2018-11-02T00:37:07.861Z,4.60
2018-11-02T00:39:36.004Z,4.70
2018-11-02T00:42:04.383Z,4.70
2018-11-02T00:44:32.522Z,4.60
2018-11-02T00:47:00.679Z,4.70
2018-11-02T00:49:28.805Z,4.70
2018-11-02T00:51:56.936Z,4.70
2018-11-02T00:54:25.048Z,4.60
2018-11-02T00:56:53.171Z,4.60
2018-11-02T00:59:21.623Z,4.60
2018-11-02T01:01:49.766Z,4.50
2018-11-02T01:04:17.877Z,4.50
2018-11-02T01:06:46.017Z,4.40
2018-11-02T01:09:14.146Z,4.30
2018-11-02T01:11:42.278Z,4.20
2018-11-02T01:14:10.426Z,4.20
2018-11-02T01:16:38.560Z,4.10
2018-11-02T01:19:06.680Z,4.00
2018-11-02T01:21:34.893Z,3.90
2018-11-02T01:24:03.419Z,3.90
2018-11-02T01:26:31.537Z,4.00
2018-11-02T01:28:59.670Z,4.10
2018-11-02T01:31:27.813Z,4.10
2018-11-02T01:33:55.934Z,4.10
2018-11-02T01:36:24.087Z,4.00
2018-11-02T01:38:52.193Z,4.00
2018-11-02T01:41:20.318Z,3.90
2018-11-02T01:43:48.458Z,3.90
2018-11-02T01:46:16.583Z,3.80
2018-11-02T01:48:44.747Z,3.70
2018-11-02T01:51:12.873Z,3.70
2018-11-02T01:53:40.994Z,3.70
2018-11-02T01:56:09.126Z,3.80
2018-11-02T01:58:37.251Z,3.70
2018-11-02T02:01:05.445Z,3.70
2018-11-02T02:03:33.611Z,3.70
2018-11-02T02:06:01.719Z,3.60
2018-11-02T02:08:29.854Z,3.60
2018-11-02T02:10:57.986Z,3.60
2018-11-02T02:13:26.217Z,3.50
2018-11-02T02:15:54.258Z,3.40
2018-11-02T02:18:22.385Z,3.30
2018-11-02T02:20:50.510Z,3.20
2018-11-02T02:23:18.648Z,3.20
2018-11-02T02:25:46.805Z,3.10
2018-11-02T02:28:14.905Z,3.10
2018-11-02T02:30:43.044Z,3.00
2018-11-02T02:33:11.173Z,2.90
2018-11-02T02:35:39.282Z,2.80
2018-11-02T02:38:07.416Z,2.80
2018-11-02T02:40:35.528Z,2.70
2018-11-02T02:43:03.667Z,2.60
2018-11-02T02:45:31.786Z,2.60
2018-11-02T02:47:59.919Z,2.50
2018-11-02T02:50:28.145Z,2.50
2018-11-02T02:52:56.306Z,2.40
2018-11-02T02:55:24.422Z,2.40
2018-11-02T02:57:52.554Z,2.30
2018-11-02T03:00:20.684Z,2.30
2018-11-02T03:02:48.825Z,2.30
2018-11-02T03:05:16.944Z,2.20
2018-11-02T03:07:45.063Z,2.20
2018-11-02T03:10:13.187Z,2.20
2018-11-02T03:12:41.336Z,2.20
2018-11-02T03:15:09.583Z,2.20
2018-11-02T03:17:37.982Z,2.30
2018-11-02T03:20:07.391Z,2.30
2018-11-02T03:22:35.630Z,2.30
2018-11-02T03:25:03.650Z,2.30
2018-11-02T03:27:31.790Z,2.30
2018-11-02T03:29:59.930Z,2.30
2018-11-02T03:32:28.071Z,2.40
2018-11-02T03:34:56.189Z,2.50
2018-11-02T03:37:24.326Z,2.60
2018-11-02T03:39:52.469Z,2.70
2018-11-02T03:42:20.617Z,2.80
2018-11-02T03:44:48.748Z,2.90
2018-11-02T03:47:16.925Z,3.00
2018-11-02T03:49:45.053Z,3.10
2018-11-02T03:52:13.199Z,3.20
2018-11-02T03:54:41.347Z,3.20
2018-11-02T03:57:09.470Z,3.30
2018-11-02T03:59:37.602Z,3.30
2018-11-02T04:02:05.789Z,3.30
2018-11-02T04:04:33.911Z,3.40
2018-11-02T04:07:02.039Z,3.40
2018-11-02T04:09:30.252Z,3.50
2018-11-02T04:11:58.322Z,3.60
2018-11-02T04:14:26.445Z,3.60
2018-11-02T04:16:54.569Z,3.60
2018-11-02T04:19:22.728Z,3.60
2018-11-02T04:21:50.894Z,3.70
2018-11-02T04:24:19.006Z,3.70
2018-11-02T04:26:47.145Z,3.80
2018-11-02T04:29:15.749Z,3.80
2018-11-02T04:31:44.421Z,3.90
2018-11-02T04:34:13.406Z,3.90
2018-11-02T04:36:41.865Z,3.90
2018-11-02T04:39:11.810Z,4.00
2018-11-02T04:41:40.014Z,4.00
2018-11-02T04:44:09.177Z,4.00
2018-11-02T04:46:37.942Z,4.00
2018-11-02T04:49:06.610Z,4.00
2018-11-02T04:51:34.725Z,4.00
2018-11-02T04:54:02.901Z,3.90
2018-11-02T04:56:31.042Z,3.90
2018-11-02T04:58:59.208Z,3.90
2018-11-02T05:01:27.301Z,3.90
2018-11-02T05:03:55.418Z,3.90
2018-11-02T05:06:23.543Z,3.90
2018-11-02T05:08:51.683Z,4.00
2018-11-02T05:11:19.871Z,4.00
2018-11-02T05:13:47.913Z,4.00
2018-11-02T05:16:16.050Z,4.00
2018-11-02T05:18:44.174Z,4.00
2018-11-02T05:21:12.328Z,4.00
2018-11-02T05:23:40.430Z,4.00
2018-11-02T05:26:08.561Z,4.00
2018-11-02T05:28:36.723Z,4.00
2018-11-02T05:31:05.207Z,4.00
2018-11-02T05:33:33.358Z,4.10
2018-11-02T05:36:01.475Z,4.10
2018-11-02T05:38:29.611Z,4.10
2018-11-02T05:40:57.783Z,4.10
2018-11-02T05:43:25.859Z,4.20
2018-11-02T05:45:54.022Z,4.20
2018-11-02T05:48:22.151Z,4.20
2018-11-02T05:50:50.301Z,4.20
2018-11-02T05:53:18.429Z,4.20
2018-11-02T05:55:46.573Z,4.20
2018-11-02T05:58:14.725Z,4.30
2018-11-02T06:00:42.894Z,4.30
2018-11-02T06:03:11.026Z,4.30
2018-11-02T06:05:39.149Z,4.30
2018-11-02T06:08:07.298Z,4.40
2018-11-02T06:10:35.414Z,4.40
2018-11-02T06:13:03.582Z,4.40
2018-11-02T06:15:31.787Z,4.40
2018-11-02T06:17:59.926Z,4.40
2018-11-02T06:20:28.077Z,4.50
2018-11-02T06:22:56.227Z,4.50
2018-11-02T06:25:24.350Z,4.50
2018-11-02T06:27:52.517Z,4.50
2018-11-02T06:30:20.671Z,4.50
2018-11-02T06:32:48.838Z,4.60
2018-11-02T06:35:16.918Z,4.60
2018-11-02T06:37:45.046Z,4.70
2018-11-02T06:40:13.529Z,4.70
2018-11-02T06:42:41.655Z,4.80
2018-11-02T06:45:10.632Z,4.80
2018-11-02T06:47:40.893Z,4.90
2018-11-02T06:50:09.040Z,5.00
2018-11-02T06:52:37.158Z,5.00
2018-11-02T06:55:06.240Z,5.00
2018-11-02T06:57:34.378Z,5.10
2018-11-02T07:00:02.984Z,5.20
2018-11-02T07:02:30.823Z,5.30
2018-11-02T07:04:59.393Z,5.50
2018-11-02T07:07:27.618Z,5.60
2018-11-02T07:09:55.729Z,5.70
2018-11-02T07:12:23.825Z,5.80
2018-11-02T07:14:51.994Z,5.90
2018-11-02T07:17:20.154Z,6.10
2018-11-02T07:19:48.296Z,6.30
2018-11-02T07:22:16.441Z,6.40
2018-11-02T07:24:44.570Z,6.60
2018-11-02T07:27:12.695Z,6.60
2018-11-02T07:29:40.847Z,6.60
2018-11-02T07:32:08.970Z,6.60
2018-11-02T07:34:37.112Z,6.60
2018-11-02T07:37:05.358Z,6.60
2018-11-02T07:39:34.491Z,6.80
2018-11-02T07:42:03.171Z,6.90
2018-11-02T07:44:31.420Z,7.10
2018-11-02T07:46:59.811Z,7.30
2018-11-02T07:49:28.368Z,7.50
2018-11-02T07:51:56.450Z,7.60
2018-11-02T07:54:24.828Z,7.70
2018-11-02T07:56:53.011Z,7.80
2018-11-02T07:59:21.592Z,7.90
2018-11-02T08:01:49.726Z,8.20
2018-11-02T08:04:18.652Z,8.70
2018-11-02T08:06:46.807Z,9.10
2018-11-02T08:09:15.449Z,9.40
2018-11-02T08:11:44.375Z,9.50
2018-11-02T08:14:12.521Z,9.50
2018-11-02T08:16:40.833Z,9.60
2018-11-02T08:19:09.081Z,9.60
2018-11-02T08:21:37.137Z,9.60
2018-11-02T08:24:05.356Z,9.50
2018-11-02T08:26:33.537Z,9.30
2018-11-02T08:29:01.725Z,9.10
2018-11-02T08:31:29.842Z,8.90
2018-11-02T08:33:57.994Z,8.80
2018-11-02T08:36:26.157Z,8.70
2018-11-02T08:38:54.301Z,8.70
2018-11-02T08:41:22.433Z,8.70
2018-11-02T08:43:50.602Z,8.60
2018-11-02T08:46:18.823Z,8.70
2018-11-02T08:48:46.898Z,8.70
2018-11-02T08:51:15.046Z,8.80
2018-11-02T08:53:43.218Z,8.90
2018-11-02T08:56:11.415Z,9.00
2018-11-02T08:58:39.759Z,9.10
2018-11-02T09:01:07.672Z,9.20
2018-11-02T09:03:35.810Z,9.30
2018-11-02T09:06:03.948Z,9.60
2018-11-02T09:08:32.090Z,9.70
2018-11-02T09:11:00.226Z,9.80
2018-11-02T09:13:28.680Z,9.90
2018-11-02T09:15:56.834Z,9.90
2018-11-02T09:18:24.965Z,9.80
2018-11-02T09:20:53.107Z,9.80
2018-11-02T09:23:21.254Z,9.80
2018-11-02T09:25:49.450Z,9.70
2018-11-02T09:28:17.603Z,9.80
2018-11-02T09:30:45.797Z,9.70
2018-11-02T09:33:13.929Z,9.70
2018-11-02T09:35:42.173Z,9.70
2018-11-02T09:38:10.299Z,9.70
2018-11-02T09:40:38.438Z,9.80
2018-11-02T09:43:06.569Z,9.90
2018-11-02T09:45:34.744Z,10.10
2018-11-02T09:48:02.885Z,10.30
2018-11-02T09:50:31.054Z,10.40
2018-11-02T09:52:59.185Z,10.50
2018-11-02T09:55:27.323Z,10.60
2018-11-02T09:57:55.458Z,10.70
2018-11-02T10:00:23.602Z,10.80
2018-11-02T10:02:51.746Z,10.90
2018-11-02T10:05:20.638Z,10.90
2018-11-02T10:07:48.766Z,11.00
2018-11-02T10:10:16.937Z,11.00
2018-11-02T10:12:45.106Z,11.10
2018-11-02T10:15:14.542Z,11.20
2018-11-02T10:17:42.705Z,11.30
2018-11-02T10:20:11.498Z,11.40
2018-11-02T10:22:39.799Z,11.60
2018-11-02T10:25:08.877Z,11.80
2018-11-02T10:27:37.737Z,11.90
2018-11-02T10:30:08.006Z,12.20
2018-11-02T10:32:36.144Z,12.40
2018-11-02T10:35:04.423Z,12.60
2018-11-02T10:37:32.576Z,12.80
2018-11-02T10:40:00.734Z,13.00
2018-11-02T10:42:28.871Z,13.10
2018-11-02T10:44:57.217Z,13.20
2018-11-02T10:47:25.275Z,13.50
2018-11-02T10:49:53.438Z,14.10
2018-11-02T10:52:22.388Z,14.80
2018-11-02T10:54:50.571Z,15.00
2018-11-02T10:57:18.728Z,15.10
2018-11-02T10:59:46.857Z,15.40
2018-11-02T11:02:20.366Z,15.70
2018-11-02T11:04:48.522Z,16.00
2018-11-02T11:07:16.688Z,16.10
2018-11-02T11:09:44.822Z,15.90
2018-11-02T11:12:13.047Z,15.60
2018-11-02T11:14:41.103Z,15.40
2018-11-02T11:17:09.255Z,15.30
2018-11-02T11:19:37.394Z,15.30
2018-11-02T11:22:05.578Z,15.30
2018-11-02T11:24:33.713Z,15.30
2018-11-02T11:27:01.866Z,15.20
2018-11-02T11:29:30.169Z,15.10
2018-11-02T11:31:58.158Z,15.00
2018-11-02T11:34:26.314Z,14.80
2018-11-02T11:36:54.482Z,14.60
2018-11-02T11:39:22.621Z,14.50
2018-11-02T11:41:50.747Z,14.40
2018-11-02T11:44:18.915Z,14.20
2018-11-02T11:46:47.049Z,14.10
2018-11-02T11:49:15.373Z,14.00
2018-11-02T11:51:43.345Z,13.90
2018-11-02T11:54:11.535Z,13.90
2018-11-02T11:56:39.691Z,13.90
2018-11-02T11:59:07.826Z,13.90
2018-11-02T12:01:35.979Z,13.90
2018-11-02T12:04:04.481Z,13.80
2018-11-02T12:06:32.633Z,13.80
2018-11-02T12:09:00.771Z,13.80
2018-11-02T12:11:28.932Z,13.80
2018-11-02T12:13:57.068Z,13.80
2018-11-02T12:16:25.210Z,13.90
2018-11-02T12:18:53.371Z,13.90
2018-11-02T12:21:21.510Z,14.00
2018-11-02T12:23:49.694Z,14.10
2018-11-02T12:26:17.809Z,14.10
2018-11-02T12:28:46.055Z,14.00
2018-11-02T12:31:14.130Z,13.80
2018-11-02T12:33:42.295Z,13.70
2018-11-02T12:36:10.566Z,13.70
2018-11-02T12:38:38.705Z,13.60
2018-11-02T12:41:06.827Z,13.50
2018-11-02T12:43:35.073Z,13.50
2018-11-02T12:46:03.132Z,13.40
2018-11-02T12:48:31.315Z,13.30
2018-11-02T12:50:59.426Z,13.20
2018-11-02T12:53:28.238Z,13.20
2018-11-02T12:55:56.393Z,13.10
2018-11-02T12:58:24.562Z,13.10
2018-11-02T13:00:52.721Z,13.10
2018-11-02T13:03:20.844Z,13.10
2018-11-02T13:05:49.046Z,13.20
2018-11-02T13:08:17.170Z,13.30
2018-11-02T13:10:45.336Z,13.30
2018-11-02T13:13:13.474Z,13.30
2018-11-02T13:15:41.671Z,13.40
2018-11-02T13:18:09.799Z,13.40
2018-11-02T13:20:37.897Z,13.40
2018-11-02T13:23:06.080Z,13.40
2018-11-02T13:25:34.302Z,13.40
2018-11-02T13:28:02.336Z,13.30
2018-11-02T13:30:30.697Z,13.30
2018-11-02T13:32:58.659Z,13.20
2018-11-02T13:35:26.810Z,13.20
2018-11-02T13:37:54.948Z,13.20
2018-11-02T13:40:23.136Z,13.10
2018-11-02T13:42:51.280Z,13.10
2018-11-02T13:45:19.795Z,13.10
2018-11-02T13:47:47.950Z,13.10
2018-11-02T13:50:16.157Z,13.10
2018-11-02T13:52:44.683Z,13.20
2018-11-02T13:55:13.264Z,13.20
2018-11-02T13:57:41.641Z,13.20
2018-11-02T14:00:11.855Z,13.20
2018-11-02T14:02:40.003Z,13.20
2018-11-02T14:05:09.447Z,13.10
2018-11-02T14:07:37.629Z,13.10
2018-11-02T14:10:06.923Z,13.00
2018-11-02T14:12:35.049Z,13.00
2018-11-02T14:15:04.530Z,13.00
2018-11-02T14:17:32.681Z,12.90
2018-11-02T14:20:00.818Z,12.90
2018-11-02T14:22:28.987Z,12.90
2018-11-02T14:24:57.110Z,12.90
2018-11-02T14:27:25.280Z,12.90
2018-11-02T14:29:53.459Z,12.80
2018-11-02T14:32:21.592Z,12.80
2018-11-02T14:34:49.730Z,12.80
2018-11-02T14:37:17.889Z,12.80
2018-11-02T14:39:46.021Z,12.80
2018-11-02T14:42:14.201Z,12.80
2018-11-02T14:44:42.337Z,12.90
2018-11-02T14:47:10.497Z,12.90
2018-11-02T14:49:38.631Z,12.90
2018-11-02T14:52:06.832Z,12.80
2018-11-02T14:54:34.974Z,12.80
2018-11-02T14:57:03.110Z,12.70
2018-11-02T14:59:31.267Z,12.70
2018-11-02T15:01:59.406Z,12.70
2018-11-02T15:04:27.530Z,12.70
2018-11-02T15:06:55.675Z,12.60
2018-11-02T15:09:24.623Z,12.70
2018-11-02T15:11:52.750Z,12.70
2018-11-02T15:14:20.929Z,12.60
2018-11-02T15:16:49.095Z,12.60
2018-11-02T15:19:17.228Z,12.60
2018-11-02T15:21:45.351Z,12.50
2018-11-02T15:24:13.525Z,12.50
2018-11-02T15:26:41.677Z,12.40
2018-11-02T15:29:09.919Z,12.40
2018-11-02T15:31:38.082Z,12.30
2018-11-02T15:34:06.581Z,12.20
2018-11-02T15:36:34.702Z,12.10
2018-11-02T15:39:02.969Z,12.00
2018-11-02T15:41:31.101Z,11.90
2018-11-02T15:43:59.284Z,11.70
2018-11-02T15:46:27.464Z,11.60
2018-11-02T15:48:55.619Z,11.50
2018-11-02T15:51:23.748Z,11.30
2018-11-02T15:53:51.910Z,11.20
2018-11-02T15:56:20.126Z,11.10
2018-11-02T15:58:48.263Z,11.00
2018-11-02T16:01:16.439Z,10.90
2018-11-02T16:03:44.562Z,10.70
2018-11-02T16:06:12.739Z,10.60
2018-11-02T16:08:40.874Z,10.60
2018-11-02T16:11:09.016Z,10.50
2018-11-02T16:13:37.183Z,10.40
2018-11-02T16:16:05.493Z,10.40
2018-11-02T16:18:33.626Z,10.30
2018-11-02T16:21:01.761Z,10.20
2018-11-02T16:23:29.897Z,10.10
2018-11-02T16:25:58.038Z,10.10
2018-11-02T16:28:26.222Z,10.00
2018-11-02T16:30:54.358Z,10.00
2018-11-02T16:33:22.512Z,9.90
2018-11-02T16:35:50.718Z,9.90
2018-11-02T16:38:18.845Z,9.90
2018-11-02T16:40:46.992Z,9.80
2018-11-02T16:43:15.331Z,9.80
2018-11-02T16:45:43.471Z,9.80
2018-11-02T16:48:11.679Z,9.80
2018-11-02T16:50:39.734Z,9.80
2018-11-02T16:53:07.857Z,9.70
2018-11-02T16:55:36.005Z,9.70
2018-11-02T16:58:04.204Z,9.70
2018-11-02T17:00:32.303Z,9.70
2018-11-02T17:03:00.427Z,9.80
2018-11-02T17:05:28.558Z,9.80
2018-11-02T17:07:56.687Z,9.80
2018-11-02T17:10:25.068Z,9.90
2018-11-02T17:12:53.214Z,9.90
2018-11-02T17:15:21.932Z,9.90
2018-11-02T17:17:50.081Z,9.90
2018-11-02T17:20:18.748Z,9.90
2018-11-02T17:22:47.125Z,9.90
2018-11-02T17:25:15.646Z,9.90
2018-11-02T17:27:43.777Z,9.80
2018-11-02T17:30:14.582Z,9.70
2018-11-02T17:32:42.704Z,9.60
2018-11-02T17:35:11.341Z,9.50
2018-11-02T17:37:39.506Z,9.40
2018-11-02T17:40:09.486Z,9.30
2018-11-02T17:42:37.634Z,9.30
2018-11-02T17:45:06.758Z,9.20
2018-11-02T17:47:35.233Z,9.20
2018-11-02T17:50:03.334Z,9.20
2018-11-02T17:52:31.461Z,9.20
2018-11-02T17:54:59.621Z,9.20
2018-11-02T17:57:28.865Z,9.20
2018-11-02T17:59:56.994Z,9.20
2018-11-02T18:02:25.160Z,9.20
2018-11-02T18:04:53.306Z,9.20
2018-11-02T18:07:28.122Z,9.20
2018-11-02T18:09:56.263Z,9.20
2018-11-02T18:12:24.437Z,9.30
2018-11-02T18:14:52.515Z,9.20
2018-11-02T18:17:20.674Z,9.20
2018-11-02T18:19:48.793Z,9.20
2018-11-02T18:22:16.980Z,9.30
2018-11-02T18:24:45.093Z,9.20
2018-11-02T18:27:13.527Z,9.20
2018-11-02T18:29:41.654Z,9.20
2018-11-02T18:32:09.792Z,9.20
2018-11-02T18:34:37.992Z,9.20
2018-11-02T18:37:06.230Z,9.20
2018-11-02T18:39:34.351Z,9.20
2018-11-02T18:42:02.472Z,9.20
2018-11-02T18:44:30.641Z,9.20
2018-11-02T18:46:58.762Z,9.20
2018-11-02T18:49:26.904Z,9.20
2018-11-02T18:51:55.058Z,9.10
2018-11-02T18:54:23.198Z,9.10
2018-11-02T18:56:51.330Z,9.10
2018-11-02T18:59:19.495Z,9.10
2018-11-02T19:01:47.923Z,9.00
2018-11-02T19:04:16.081Z,9.00
2018-11-02T19:06:44.215Z,9.00
2018-11-02T19:09:12.435Z,9.00
2018-11-02T19:11:40.838Z,9.00
2018-11-02T19:14:09.205Z,9.00
2018-11-02T19:16:37.338Z,9.00
2018-11-02T19:19:05.959Z,8.90
2018-11-02T19:21:34.242Z,8.90
2018-11-02T19:24:02.321Z,8.90
2018-11-02T19:26:30.464Z,9.00
2018-11-02T19:28:58.781Z,8.90
2018-11-02T19:31:26.937Z,8.90
2018-11-02T19:33:55.066Z,8.90
2018-11-02T19:36:23.242Z,8.90
2018-11-02T19:38:51.370Z,8.90
2018-11-02T19:41:19.510Z,8.80
2018-11-02T19:43:47.963Z,8.80
2018-11-02T19:46:16.641Z,8.80
2018-11-02T19:48:44.781Z,8.80
2018-11-02T19:51:12.922Z,8.80
2018-11-02T19:53:41.145Z,8.70
2018-11-02T19:56:09.198Z,8.70
2018-11-02T19:58:37.350Z,8.70
2018-11-02T20:01:05.647Z,8.70
2018-11-02T20:03:33.778Z,8.70
2018-11-02T20:06:01.909Z,8.70
2018-11-02T20:08:30.109Z,8.70
2018-11-02T20:10:58.247Z,8.70
2018-11-02T20:13:26.474Z,8.70
2018-11-02T20:15:54.613Z,8.70
2018-11-02T20:18:22.750Z,8.60
2018-11-02T20:20:50.885Z,8.60
2018-11-02T20:23:19.055Z,8.60
2018-11-02T20:25:47.210Z,8.60
2018-11-02T20:28:15.322Z,8.60
2018-11-02T20:30:43.450Z,8.60
2018-11-02T20:33:11.883Z,8.60
2018-11-02T20:35:40.017Z,8.50
2018-11-02T20:38:08.178Z,8.60
2018-11-02T20:40:36.312Z,8.60
2018-11-02T20:43:04.818Z,8.60
2018-11-02T20:45:32.933Z,8.50
2018-11-02T20:48:01.065Z,8.50
2018-11-02T20:50:29.221Z,8.50
2018-11-02T20:52:57.354Z,8.40
2018-11-02T20:55:25.491Z,8.50
2018-11-02T20:57:53.724Z,8.40
2018-11-02T21:00:23.027Z,8.40
2018-11-02T21:02:51.317Z,8.40
2018-11-02T21:05:20.161Z,8.40
2018-11-02T21:07:48.683Z,8.40
2018-11-02T21:10:18.147Z,8.40
2018-11-02T21:12:46.360Z,8.40
2018-11-02T21:15:16.954Z,8.30
2018-11-02T21:17:45.126Z,8.30
2018-11-02T21:20:16.563Z,8.40
2018-11-02T21:22:44.701Z,8.40
2018-11-02T21:25:13.522Z,8.40
2018-11-02T21:27:42.314Z,8.40
2018-11-02T21:30:14.703Z,8.40
2018-11-02T21:32:43.554Z,8.40
2018-11-02T21:35:11.682Z,8.40
2018-11-02T21:37:39.823Z,8.40
2018-11-02T21:40:10.331Z,8.40
2018-11-02T21:42:38.554Z,8.40
2018-11-02T21:45:06.715Z,8.40
2018-11-02T21:47:34.861Z,8.40
2018-11-02T21:50:03.218Z,8.40
2018-11-02T21:52:31.354Z,8.40
2018-11-02T21:54:59.844Z,8.40
2018-11-02T21:57:27.980Z,8.40
2018-11-02T21:59:56.105Z,8.40
2018-11-02T22:02:24.260Z,8.40
2018-11-02T22:04:52.655Z,8.40
2018-11-02T22:07:20.872Z,8.40
2018-11-02T22:09:49.002Z,8.40
2018-11-02T22:12:17.137Z,8.40
2018-11-02T22:14:45.288Z,8.40
2018-11-02T22:17:13.412Z,8.40
2018-11-02T22:19:41.554Z,8.40
2018-11-02T22:22:09.685Z,8.40
2018-11-02T22:24:37.804Z,8.40
2018-11-02T22:27:05.953Z,8.40
2018-11-02T22:29:34.083Z,8.40
2018-11-02T22:32:02.247Z,8.50
2018-11-02T22:34:30.338Z,8.50
2018-11-02T22:36:58.452Z,8.50
2018-11-02T22:39:26.574Z,8.50
2018-11-02T22:41:54.692Z,8.50
2018-11-02T22:44:22.878Z,8.50
2018-11-02T22:46:50.993Z,8.50
2018-11-02T22:49:19.165Z,8.50
2018-11-02T22:51:47.299Z,8.50
2018-11-02T22:54:15.444Z,8.50
2018-11-02T22:56:43.565Z,8.50
2018-11-02T22:59:11.712Z,8.50
2018-11-02T23:01:39.835Z,8.50
2018-11-02T23:04:07.989Z,8.50
2018-11-02T23:06:36.114Z,8.50
2018-11-02T23:09:06.306Z,8.40
2018-11-02T23:11:34.449Z,8.40
2018-11-02T23:14:02.581Z,8.40
2018-11-02T23:16:30.738Z,8.40
2018-11-02T23:18:59.029Z,8.40
2018-11-02T23:21:27.179Z,8.40
2018-11-02T23:23:55.308Z,8.40
2018-11-02T23:26:23.452Z,8.50
2018-11-02T23:28:51.581Z,8.40
2018-11-02T23:31:19.761Z,8.50
2018-11-02T23:33:47.894Z,8.40
2018-11-02T23:36:16.034Z,8.40
2018-11-02T23:38:44.164Z,8.40
2018-11-02T23:41:12.286Z,8.40
2018-11-02T23:43:40.416Z,8.40
2018-11-02T23:46:08.546Z,8.40
2018-11-02T23:48:36.696Z,8.30
2018-11-02T23:51:04.825Z,8.30
2018-11-02T23:53:32.973Z,8.30
2018-11-02T23:56:01.094Z,8.20
2018-11-02T23:58:29.230Z,8.20
